Etusivu
METAR-TAF:

METAR-TAF

Lentoasemat :

Trapani, Italia

Leveyspiiri: 37-55N, Pituuspiiri: 012-30E, korkeus merenpinnasta: 7 m

Tämänhetkinen sää

Tämä raportti tehtiin 1 tunti ja 6 minuuttia sitten, kello 02.55 UTC
Tuuli 5 kn kaakosta
Lämpötila 16°C
Kosteus 94%
Ilmanpaine 1014 hPa
Näkyvyys 10 km tai enemmän
Muutamia pilviä 2000 ft:n korkeudessa

METAR: LICT 310255Z 14005KT 9999 FEW020 16/15 Q1014 RMK OVC SCT080 OVC200 VIS MIN 9999 WIND THR13 10004KT BLU

Aika: 06:01 (04:01 UTC)

Sääennuste

Tämä raportti tehtiin 5 tuntia ja 1 minuuttia sitten, kello 23.00 UTC
Ennuste voimassa 31. päivästä klo 00 UTC - 31. päivään klo 09 UTC
Tuuli 5 kn pohjoisen/luoteesta
Näkyvyys 10 km tai enemmän
Muutamia pilviä 3000 ft:n korkeudessa

TAF: LICT 302300Z 3100/3109 33005KT 9999 FEW030

Säähavainnot ja -ennusteet yli 4000 lentoasemalta (METAR- ja TAF-raportit).

Käytössä olevat sääasemat on merkitty karttaan keltaisilla ja punaisilla pisteillä.

Aseta hiiri pisteen päälle nähdäksesi sääaseman nimen.

Klikkaa sitten nähdäksesi säähavainnot ja -ennusteet.

Kartan vaihtaminen: klikkaa mustalla rastilla varustettuja vihreitä pisteitä, niin voit zoomata sisään; viivalla varustettua vihreää pistettä, niin voit zoomata ulos tai vihreitä nuolia, niin pääset viereisille kartoille.


METAR-TAF: